sensor_id;sensor_type;location;lat;lon;timestamp;pressure;altitude;pressure_sealevel;temperature;humidity
78123;BME280;67376;44.802;10.332;2023-05-07T00:01:31;100961.38;;;21.87;50.76
78123;BME280;67376;44.802;10.332;2023-05-07T00:03:57;100958.66;;;21.87;50.47
78123;BME280;67376;44.802;10.332;2023-05-07T00:06:22;100953.22;;;21.87;50.88
78123;BME280;67376;44.802;10.332;2023-05-07T00:08:48;100953.22;;;21.87;50.91
78123;BME280;67376;44.802;10.332;2023-05-07T00:11:13;100949.69;;;21.86;51.11
78123;BME280;67376;44.802;10.332;2023-05-07T00:13:38;100956.78;;;21.87;50.61
78123;BME280;67376;44.802;10.332;2023-05-07T00:16:04;100970.59;;;21.86;50.79
78123;BME280;67376;44.802;10.332;2023-05-07T00:18:30;100967.88;;;21.86;50.74
78123;BME280;67376;44.802;10.332;2023-05-07T00:20:56;100971.44;;;21.86;50.62
78123;BME280;67376;44.802;10.332;2023-05-07T00:23:22;100961.63;;;21.85;51.09
78123;BME280;67376;44.802;10.332;2023-05-07T00:25:47;100967.06;;;21.85;50.55
78123;BME280;67376;44.802;10.332;2023-05-07T00:28:13;100965.41;;;21.84;50.78
78123;BME280;67376;44.802;10.332;2023-05-07T00:30:38;100978.75;;;21.86;50.79
78123;BME280;67376;44.802;10.332;2023-05-07T00:33:03;100975.22;;;21.85;50.63
78123;BME280;67376;44.802;10.332;2023-05-07T00:35:29;100975.22;;;21.85;50.41
78123;BME280;67376;44.802;10.332;2023-05-07T00:37:55;100974.38;;;21.85;50.55
78123;BME280;67376;44.802;10.332;2023-05-07T00:40:20;100979.81;;;21.85;50.73
78123;BME280;67376;44.802;10.332;2023-05-07T00:42:46;100974.63;;;21.83;50.79
78123;BME280;67376;44.802;10.332;2023-05-07T00:45:13;100972.72;;;21.84;51.34
78123;BME280;67376;44.802;10.332;2023-05-07T00:47:39;100981.72;;;21.84;50.58
78123;BME280;67376;44.802;10.332;2023-05-07T00:50:05;100985.25;;;21.85;50.74
78123;BME280;67376;44.802;10.332;2023-05-07T00:52:31;100987.16;;;21.84;50.69
78123;BME280;67376;44.802;10.332;2023-05-07T00:54:56;100992.59;;;21.84;50.64
78123;BME280;67376;44.802;10.332;2023-05-07T00:57:23;100986.56;;;21.82;50.57
78123;BME280;67376;44.802;10.332;2023-05-07T00:59:51;100985.25;;;21.85;50.85
78123;BME280;67376;44.802;10.332;2023-05-07T01:02:16;100987.16;;;21.84;50.67
78123;BME280;67376;44.802;10.332;2023-05-07T01:04:42;100991.53;;;21.85;50.62
78123;BME280;67376;44.802;10.332;2023-05-07T01:07:07;100989.88;;;21.84;50.99
78123;BME280;67376;44.802;10.332;2023-05-07T01:09:33;100986.31;;;21.84;51.05
78123;BME280;67376;44.802;10.332;2023-05-07T01:12:00;100991.16;;;21.82;51.09
78123;BME280;67376;44.802;10.332;2023-05-07T01:14:26;100984.66;;;21.83;50.63
78123;BME280;67376;44.802;10.332;2023-05-07T01:16:52;100980.88;;;21.84;50.87
78123;BME280;67376;44.802;10.332;2023-05-07T01:19:18;100994.47;;;21.84;50.82
78123;BME280;67376;44.802;10.332;2023-05-07T01:21:48;100988.22;;;21.83;50.87
78123;BME280;67376;44.802;10.332;2023-05-07T01:24:14;100980.06;;;21.83;51.08
78123;BME280;67376;44.802;10.332;2023-05-07T01:26:42;100986.56;;;21.82;50.88
78123;BME280;67376;44.802;10.332;2023-05-07T01:29:07;100990.09;;;21.83;50.83
78123;BME280;67376;44.802;10.332;2023-05-07T01:31:34;100992.00;;;21.82;51.12
78123;BME280;67376;44.802;10.332;2023-05-07T01:34:01;101000.97;;;21.83;50.97
78123;BME280;67376;44.802;10.332;2023-05-07T01:36:28;101007.25;;;21.83;51.19
78123;BME280;67376;44.802;10.332;2023-05-07T01:38:55;101002.88;;;21.82;51.29
78123;BME280;67376;44.802;10.332;2023-05-07T01:41:23;101012.69;;;21.83;51.51
78123;BME280;67376;44.802;10.332;2023-05-07T01:43:50;101007.25;;;21.83;51.31
78123;BME280;67376;44.802;10.332;2023-05-07T01:46:17;101004.19;;;21.80;51.42
78123;BME280;67376;44.802;10.332;2023-05-07T01:48:43;101009.97;;;21.83;51.31
78123;BME280;67376;44.802;10.332;2023-05-07T01:51:11;101007.25;;;21.83;51.44
78123;BME280;67376;44.802;10.332;2023-05-07T01:53:37;101004.53;;;21.83;51.18
78123;BME280;67376;44.802;10.332;2023-05-07T01:56:03;101001.81;;;21.83;51.40
78123;BME280;67376;44.802;10.332;2023-05-07T01:58:28;101003.69;;;21.83;51.34
78123;BME280;67376;44.802;10.332;2023-05-07T02:00:53;101002.88;;;21.82;50.82
78123;BME280;67376;44.802;10.332;2023-05-07T02:03:19;101000.16;;;21.82;51.14
78123;BME280;67376;44.802;10.332;2023-05-07T02:05:44;100997.44;;;21.82;51.43
78123;BME280;67376;44.802;10.332;2023-05-07T02:08:10;101003.69;;;21.83;51.62
78123;BME280;67376;44.802;10.332;2023-05-07T02:10:35;101000.97;;;21.83;51.31
78123;BME280;67376;44.802;10.332;2023-05-07T02:13:01;100994.72;;;21.82;51.62
78123;BME280;67376;44.802;10.332;2023-05-07T02:15:27;101009.97;;;21.83;51.39
78123;BME280;67376;44.802;10.332;2023-05-07T02:20:28;100999.31;;;21.82;51.36
78123;BME280;67376;44.802;10.332;2023-05-07T02:22:53;101005.59;;;21.82;51.66
78123;BME280;67376;44.802;10.332;2023-05-07T02:25:19;100999.31;;;21.82;51.64
78123;BME280;67376;44.802;10.332;2023-05-07T02:27:44;101008.31;;;21.82;51.38
78123;BME280;67376;44.802;10.332;2023-05-07T02:30:10;100998.50;;;21.81;51.51
78123;BME280;67376;44.802;10.332;2023-05-07T02:32:35;101004.75;;;21.82;51.50
78123;BME280;67376;44.802;10.332;2023-05-07T02:35:01;101007.47;;;21.82;51.48
78123;BME280;67376;44.802;10.332;2023-05-07T02:37:26;101012.91;;;21.82;51.48
78123;BME280;67376;44.802;10.332;2023-05-07T02:39:51;101013.75;;;21.82;51.50
78123;BME280;67376;44.802;10.332;2023-05-07T02:42:17;101020.00;;;21.83;51.66
78123;BME280;67376;44.802;10.332;2023-05-07T02:44:42;101014.81;;;21.81;51.75
78123;BME280;67376;44.802;10.332;2023-05-07T02:47:08;101008.53;;;21.81;51.95
78123;BME280;67376;44.802;10.332;2023-05-07T02:49:34;101010.44;;;21.80;51.58
78123;BME280;67376;44.802;10.332;2023-05-07T02:52:00;101017.53;;;21.81;51.51
78123;BME280;67376;44.802;10.332;2023-05-07T02:54:25;101014.81;;;21.81;51.42
78123;BME280;67376;44.802;10.332;2023-05-07T02:56:50;101006.88;;;21.80;51.67
78123;BME280;67376;44.802;10.332;2023-05-07T02:59:16;101005.47;;;21.77;51.74
78123;BME280;67376;44.802;10.332;2023-05-07T03:01:41;101013.97;;;21.81;51.56
78123;BME280;67376;44.802;10.332;2023-05-07T03:04:09;101008.53;;;21.81;51.50
78123;BME280;67376;44.802;10.332;2023-05-07T03:06:35;101010.44;;;21.80;50.97
78123;BME280;67376;44.802;10.332;2023-05-07T03:09:01;101009.59;;;21.80;51.44
78123;BME280;67376;44.802;10.332;2023-05-07T03:11:26;101000.63;;;21.79;51.72
78123;BME280;67376;44.802;10.332;2023-05-07T03:13:52;100999.56;;;21.80;51.23
78123;BME280;67376;44.802;10.332;2023-05-07T03:16:17;101005.00;;;21.80;51.38
78123;BME280;67376;44.802;10.332;2023-05-07T03:18:42;101009.59;;;21.80;51.34
78123;BME280;67376;44.802;10.332;2023-05-07T03:21:08;101007.72;;;21.80;51.08
78123;BME280;67376;44.802;10.332;2023-05-07T03:23:33;101005.25;;;21.79;51.41
78123;BME280;67376;44.802;10.332;2023-05-07T03:25:59;101007.97;;;21.79;51.43
78123;BME280;67376;44.802;10.332;2023-05-07T03:28:24;101010.66;;;21.79;51.10
78123;BME280;67376;44.802;10.332;2023-05-07T03:30:49;101009.84;;;21.78;51.48
78123;BME280;67376;44.802;10.332;2023-05-07T03:33:15;101016.94;;;21.79;51.06
78123;BME280;67376;44.802;10.332;2023-05-07T03:35:41;101020.72;;;21.78;51.05
78123;BME280;67376;44.802;10.332;2023-05-07T03:38:07;101017.16;;;21.78;51.56
78123;BME280;67376;44.802;10.332;2023-05-07T03:40:32;101018.00;;;21.78;51.24
78123;BME280;67376;44.802;10.332;2023-05-07T03:42:59;101010.91;;;21.77;51.12
78123;BME280;67376;44.802;10.332;2023-05-07T03:45:25;101021.78;;;21.77;51.23
78123;BME280;67376;44.802;10.332;2023-05-07T03:47:50;101010.91;;;21.77;51.47
78123;BME280;67376;44.802;10.332;2023-05-07T03:50:15;101022.59;;;21.78;51.03
78123;BME280;67376;44.802;10.332;2023-05-07T03:52:41;101019.06;;;21.77;51.01
78123;BME280;67376;44.802;10.332;2023-05-07T03:55:06;101027.22;;;21.77;50.80
78123;BME280;67376;44.802;10.332;2023-05-07T03:57:32;101032.66;;;21.77;51.23
78123;BME280;67376;44.802;10.332;2023-05-07T03:59:57;101026.38;;;21.77;51.07
78123;BME280;67376;44.802;10.332;2023-05-07T04:02:23;101028.28;;;21.76;50.96
78123;BME280;67376;44.802;10.332;2023-05-07T04:04:49;101029.34;;;21.75;50.77
78123;BME280;67376;44.802;10.332;2023-05-07T04:07:14;101037.25;;;21.77;50.92
78123;BME280;67376;44.802;10.332;2023-05-07T04:09:40;101038.09;;;21.77;50.87
78123;BME280;67376;44.802;10.332;2023-05-07T04:12:05;101040.22;;;21.75;50.57
78123;BME280;67376;44.802;10.332;2023-05-07T04:14:31;101035.59;;;21.75;51.10
78123;BME280;67376;44.802;10.332;2023-05-07T04:16:58;101040.22;;;21.75;51.14
78123;BME280;67376;44.802;10.332;2023-05-07T04:19:24;101043.75;;;21.75;50.66
78123;BME280;67376;44.802;10.332;2023-05-07T04:21:50;101049.44;;;21.74;50.75
78123;BME280;67376;44.802;10.332;2023-05-07T04:24:15;101048.38;;;21.75;50.68
78123;BME280;67376;44.802;10.332;2023-05-07T04:26:40;101051.09;;;21.75;50.51
78123;BME280;67376;44.802;10.332;2023-05-07T04:29:06;101055.69;;;21.74;51.05
78123;BME280;67376;44.802;10.332;2023-05-07T04:31:32;101054.03;;;21.73;51.04
78123;BME280;67376;44.802;10.332;2023-05-07T04:33:57;101060.31;;;21.74;50.76
78123;BME280;67376;44.802;10.332;2023-05-07T04:36:23;101066.56;;;21.74;50.85
78123;BME280;67376;44.802;10.332;2023-05-07T04:38:51;101059.25;;;21.75;50.77
78123;BME280;67376;44.802;10.332;2023-05-07T04:41:16;101052.97;;;21.74;50.98
78123;BME280;67376;44.802;10.332;2023-05-07T04:43:41;101054.03;;;21.73;51.02
78123;BME280;67376;44.802;10.332;2023-05-07T04:46:08;101064.69;;;21.75;50.45
78123;BME280;67376;44.802;10.332;2023-05-07T04:48:33;101071.19;;;21.74;50.31
78123;BME280;67376;44.802;10.332;2023-05-07T04:50:58;101073.06;;;21.73;50.42
78123;BME280;67376;44.802;10.332;2023-05-07T04:53:24;101074.97;;;21.73;50.43
78123;BME280;67376;44.802;10.332;2023-05-07T04:55:55;101077.69;;;21.73;50.54
78123;BME280;67376;44.802;10.332;2023-05-07T04:58:20;101072.25;;;21.73;50.82
78123;BME280;67376;44.802;10.332;2023-05-07T05:00:46;101076.84;;;21.72;50.93
78123;BME280;67376;44.802;10.332;2023-05-07T05:03:11;101078.75;;;21.72;50.33
78123;BME280;67376;44.802;10.332;2023-05-07T05:05:37;101081.69;;;21.70;50.83
78123;BME280;67376;44.802;10.332;2023-05-07T05:08:02;101090.44;;;21.72;50.55
78123;BME280;67376;44.802;10.332;2023-05-07T05:10:27;101091.28;;;21.73;50.42
78123;BME280;67376;44.802;10.332;2023-05-07T05:12:53;101086.06;;;21.71;50.44
78123;BME280;67376;44.802;10.332;2023-05-07T05:15:18;101090.69;;;21.71;50.48
78123;BME280;67376;44.802;10.332;2023-05-07T05:17:44;101086.91;;;21.72;50.78
78123;BME280;67376;44.802;10.332;2023-05-07T05:20:09;101088.78;;;21.71;50.34
78123;BME280;67376;44.802;10.332;2023-05-07T05:22:38;101093.16;;;21.72;50.57
78123;BME280;67376;44.802;10.332;2023-05-07T05:25:04;101084.41;;;21.70;50.59
78123;BME280;67376;44.802;10.332;2023-05-07T05:27:29;101098.00;;;21.70;50.56
78123;BME280;67376;44.802;10.332;2023-05-07T05:29:55;101094.22;;;21.71;50.43
78123;BME280;67376;44.802;10.332;2023-05-07T05:32:20;101095.03;;;21.72;50.86
78123;BME280;67376;44.802;10.332;2023-05-07T05:34:47;101096.09;;;21.71;50.41
78123;BME280;67376;44.802;10.332;2023-05-07T05:37:13;101104.25;;;21.71;50.59
78123;BME280;67376;44.802;10.332;2023-05-07T05:39:38;101093.38;;;21.71;50.60
78123;BME280;67376;44.802;10.332;2023-05-07T05:42:03;101094.22;;;21.71;50.51
78123;BME280;67376;44.802;10.332;2023-05-07T05:44:29;101092.56;;;21.70;50.49
78123;BME280;67376;44.802;10.332;2023-05-07T05:46:54;101096.09;;;21.71;50.01
78123;BME280;67376;44.802;10.332;2023-05-07T05:49:20;101098.81;;;21.71;50.31
78123;BME280;67376;44.802;10.332;2023-05-07T05:51:46;101094.47;;;21.70;50.59
78123;BME280;67376;44.802;10.332;2023-05-07T05:54:11;101098.00;;;21.70;50.54
78123;BME280;67376;44.802;10.332;2023-05-07T05:56:37;101094.22;;;21.71;50.29
78123;BME280;67376;44.802;10.332;2023-05-07T05:59:03;101089.03;;;21.70;50.57
78123;BME280;67376;44.802;10.332;2023-05-07T06:01:28;101086.31;;;21.70;50.58
78123;BME280;67376;44.802;10.332;2023-05-07T06:03:54;101087.38;;;21.69;50.17
78123;BME280;67376;44.802;10.332;2023-05-07T06:06:19;101086.31;;;21.70;50.43
78123;BME280;67376;44.802;10.332;2023-05-07T06:08:44;101082.53;;;21.71;50.54
78123;BME280;67376;44.802;10.332;2023-05-07T06:11:10;101083.59;;;21.70;50.60
78123;BME280;67376;44.802;10.332;2023-05-07T06:13:36;101094.47;;;21.70;50.62
78123;BME280;67376;44.802;10.332;2023-05-07T06:16:01;101086.31;;;21.70;50.75
78123;BME280;67376;44.802;10.332;2023-05-07T06:18:27;101090.91;;;21.69;49.97
78123;BME280;67376;44.802;10.332;2023-05-07T06:20:53;101093.63;;;21.69;50.39
78123;BME280;67376;44.802;10.332;2023-05-07T06:23:19;101087.13;;;21.70;50.43
78123;BME280;67376;44.802;10.332;2023-05-07T06:25:51;101094.47;;;21.70;50.48
78123;BME280;67376;44.802;10.332;2023-05-07T06:28:17;101095.28;;;21.70;50.33
78123;BME280;67376;44.802;10.332;2023-05-07T06:30:42;101089.03;;;21.70;50.57
78123;BME280;67376;44.802;10.332;2023-05-07T06:33:08;101094.47;;;21.70;50.36
78123;BME280;67376;44.802;10.332;2023-05-07T06:35:33;101089.03;;;21.70;50.38
78123;BME280;67376;44.802;10.332;2023-05-07T06:38:00;101085.47;;;21.69;50.25
78123;BME280;67376;44.802;10.332;2023-05-07T06:40:25;101090.09;;;21.69;49.97
78123;BME280;67376;44.802;10.332;2023-05-07T06:42:51;101080.88;;;21.70;50.20
78123;BME280;67376;44.802;10.332;2023-05-07T06:45:16;101085.25;;;21.71;50.43
78123;BME280;67376;44.802;10.332;2023-05-07T06:47:41;101087.13;;;21.70;50.25
78123;BME280;67376;44.802;10.332;2023-05-07T06:50:07;101079.22;;;21.69;50.33
78123;BME280;67376;44.802;10.332;2023-05-07T06:52:33;101083.81;;;21.68;50.42
78123;BME280;67376;44.802;10.332;2023-05-07T06:54:59;101090.91;;;21.69;50.11
78123;BME280;67376;44.802;10.332;2023-05-07T06:57:25;101089.03;;;21.70;50.27
78123;BME280;67376;44.802;10.332;2023-05-07T06:59:50;101080.03;;;21.69;50.35
78123;BME280;67376;44.802;10.332;2023-05-07T07:02:16;101078.97;;;21.70;50.18
78123;BME280;67376;44.802;10.332;2023-05-07T07:04:41;101083.59;;;21.70;50.43
78123;BME280;67376;44.802;10.332;2023-05-07T07:07:07;101084.41;;;21.70;50.09
78123;BME280;67376;44.802;10.332;2023-05-07T07:09:32;101083.34;;;21.71;50.01
78123;BME280;67376;44.802;10.332;2023-05-07T07:11:58;101080.63;;;21.71;50.31
78123;BME280;67376;44.802;10.332;2023-05-07T07:14:23;101078.97;;;21.70;49.99
78123;BME280;67376;44.802;10.332;2023-05-07T07:16:48;101080.63;;;21.71;50.55
78123;BME280;67376;44.802;10.332;2023-05-07T07:19:14;101080.63;;;21.71;50.09
78123;BME280;67376;44.802;10.332;2023-05-07T07:21:41;101083.34;;;21.71;50.20
78123;BME280;67376;44.802;10.332;2023-05-07T07:24:06;101077.09;;;21.71;50.09
78123;BME280;67376;44.802;10.332;2023-05-07T07:26:31;101077.09;;;21.71;50.31
78123;BME280;67376;44.802;10.332;2023-05-07T07:28:57;101065.38;;;21.70;50.46
78123;BME280;67376;44.802;10.332;2023-05-07T07:31:22;101076.03;;;21.72;50.46
78123;BME280;67376;44.802;10.332;2023-05-07T07:33:47;101071.66;;;21.71;50.79
78123;BME280;67376;44.802;10.332;2023-05-07T07:36:15;101067.88;;;21.72;49.99
78123;BME280;67376;44.802;10.332;2023-05-07T07:38:40;101070.81;;;21.70;50.48
78123;BME280;67376;44.802;10.332;2023-05-07T07:41:07;101073.31;;;21.72;50.31
78123;BME280;67376;44.802;10.332;2023-05-07T07:43:33;101063.72;;;21.69;50.45
78123;BME280;67376;44.802;10.332;2023-05-07T07:45:58;101072.47;;;21.71;50.97
78123;BME280;67376;44.802;10.332;2023-05-07T07:48:23;101074.13;;;21.72;50.18
78123;BME280;67376;44.802;10.332;2023-05-07T07:50:49;101080.41;;;21.73;50.14
78123;BME280;67376;44.802;10.332;2023-05-07T07:53:16;101077.69;;;21.73;50.44
78123;BME280;67376;44.802;10.332;2023-05-07T07:55:41;101085.81;;;21.73;50.34
78123;BME280;67376;44.802;10.332;2023-05-07T07:58:07;101083.94;;;21.73;50.59
78123;BME280;67376;44.802;10.332;2023-05-07T08:00:32;101080.41;;;21.73;50.21
78123;BME280;67376;44.802;10.332;2023-05-07T08:02:57;101083.94;;;21.73;50.58
78123;BME280;67376;44.802;10.332;2023-05-07T08:05:23;101080.41;;;21.73;50.31
78123;BME280;67376;44.802;10.332;2023-05-07T08:07:49;101086.91;;;21.72;50.57
78123;BME280;67376;44.802;10.332;2023-05-07T08:10:17;101089.38;;;21.73;50.43
78123;BME280;67376;44.802;10.332;2023-05-07T08:12:47;101087.47;;;21.74;50.63
78123;BME280;67376;44.802;10.332;2023-05-07T08:15:13;101086.66;;;21.73;50.39
78123;BME280;67376;44.802;10.332;2023-05-07T08:17:38;101089.38;;;21.73;50.74
78123;BME280;67376;44.802;10.332;2023-05-07T08:20:04;101084.78;;;21.74;50.54
78123;BME280;67376;44.802;10.332;2023-05-07T08:22:30;101084.53;;;21.75;50.25
78123;BME280;67376;44.802;10.332;2023-05-07T08:24:55;101090.19;;;21.74;50.55
78123;BME280;67376;44.802;10.332;2023-05-07T08:27:20;101083.69;;;21.75;50.89
78123;BME280;67376;44.802;10.332;2023-05-07T08:29:46;101083.69;;;21.75;50.41
78123;BME280;67376;44.802;10.332;2023-05-07T08:32:12;101081.81;;;21.75;50.48
78123;BME280;67376;44.802;10.332;2023-05-07T08:34:38;101076.38;;;21.75;50.63
78123;BME280;67376;44.802;10.332;2023-05-07T08:37:04;101075.56;;;21.75;50.64
78123;BME280;67376;44.802;10.332;2023-05-07T08:39:29;101079.09;;;21.75;50.81
78123;BME280;67376;44.802;10.332;2023-05-07T08:41:55;101076.38;;;21.75;50.72
78123;BME280;67376;44.802;10.332;2023-05-07T08:44:22;101074.72;;;21.74;50.66
78123;BME280;67376;44.802;10.332;2023-05-07T08:46:51;101075.31;;;21.77;50.48
78123;BME280;67376;44.802;10.332;2023-05-07T08:49:20;101082.41;;;21.78;50.89
78123;BME280;67376;44.802;10.332;2023-05-07T08:51:45;101070.72;;;21.77;50.83
78123;BME280;67376;44.802;10.332;2023-05-07T08:54:11;101075.06;;;21.78;50.94
78123;BME280;67376;44.802;10.332;2023-05-07T08:56:37;101073.44;;;21.77;50.95
78123;BME280;67376;44.802;10.332;2023-05-07T08:59:02;101068.00;;;21.77;50.57
78123;BME280;67376;44.802;10.332;2023-05-07T09:01:28;101072.34;;;21.78;51.11
78123;BME280;67376;44.802;10.332;2023-05-07T09:03:54;101071.53;;;21.78;50.91
78123;BME280;67376;44.802;10.332;2023-05-07T09:06:20;101069.63;;;21.78;50.59
78123;BME280;67376;44.802;10.332;2023-05-07T09:08:53;101058.78;;;21.78;50.79
78123;BME280;67376;44.802;10.332;2023-05-07T09:11:22;101068.56;;;21.79;50.75
78123;BME280;67376;44.802;10.332;2023-05-07T09:13:48;101059.59;;;21.79;50.82
78123;BME280;67376;44.802;10.332;2023-05-07T09:16:15;101058.78;;;21.78;50.77
78123;BME280;67376;44.802;10.332;2023-05-07T09:18:43;101044.13;;;21.79;50.67
78123;BME280;67376;44.802;10.332;2023-05-07T09:21:11;101060.41;;;21.79;50.56
78123;BME280;67376;44.802;10.332;2023-05-07T09:23:37;101044.13;;;21.79;50.77
78123;BME280;67376;44.802;10.332;2023-05-07T09:26:03;101052.28;;;21.79;50.58
78123;BME280;67376;44.802;10.332;2023-05-07T09:28:29;101052.03;;;21.81;50.97
78123;BME280;67376;44.802;10.332;2023-05-07T09:30:55;101051.22;;;21.80;51.08
78123;BME280;67376;44.802;10.332;2023-05-07T09:33:20;101052.84;;;21.81;50.80
78123;BME280;67376;44.802;10.332;2023-05-07T09:35:47;101058.28;;;21.81;50.74
78123;BME280;67376;44.802;10.332;2023-05-07T09:38:18;101047.66;;;21.80;50.64
78123;BME280;67376;44.802;10.332;2023-05-07T09:40:45;101047.44;;;21.81;50.82
78123;BME280;67376;44.802;10.332;2023-05-07T09:43:11;101047.44;;;21.81;50.60
78123;BME280;67376;44.802;10.332;2023-05-07T09:45:38;101044.72;;;21.81;50.86
78123;BME280;67376;44.802;10.332;2023-05-07T09:48:05;101048.25;;;21.82;50.43
78123;BME280;67376;44.802;10.332;2023-05-07T09:50:41;101046.34;;;21.82;50.34
78123;BME280;67376;44.802;10.332;2023-05-07T09:53:11;101044.72;;;21.81;50.70
78123;BME280;67376;44.802;10.332;2023-05-07T09:55:37;101049.31;;;21.81;50.73
78123;BME280;67376;44.802;10.332;2023-05-07T09:58:03;101039.84;;;21.83;50.78
78123;BME280;67376;44.802;10.332;2023-05-07T10:00:31;101036.56;;;21.81;50.81
78123;BME280;67376;44.802;10.332;2023-05-07T10:02:57;101041.50;;;21.84;50.99
78123;BME280;67376;44.802;10.332;2023-05-07T10:05:23;101040.69;;;21.84;51.12
78123;BME280;67376;44.802;10.332;2023-05-07T10:07:50;101037.13;;;21.83;51.19
78123;BME280;67376;44.802;10.332;2023-05-07T10:10:17;101036.31;;;21.83;50.61
78123;BME280;67376;44.802;10.332;2023-05-07T10:12:43;101039.84;;;21.83;50.74
78123;BME280;67376;44.802;10.332;2023-05-07T10:15:09;101035.25;;;21.84;50.94
78123;BME280;67376;44.802;10.332;2023-05-07T10:17:37;101038.56;;;21.86;51.04
78123;BME280;67376;44.802;10.332;2023-05-07T10:20:03;101028.75;;;21.85;50.52
78123;BME280;67376;44.802;10.332;2023-05-07T10:22:33;101028.75;;;21.85;50.68
78123;BME280;67376;44.802;10.332;2023-05-07T10:25:02;101025.19;;;21.84;51.02
78123;BME280;67376;44.802;10.332;2023-05-07T10:27:29;101027.09;;;21.84;51.03
78123;BME280;67376;44.802;10.332;2023-05-07T10:32:38;101028.50;;;21.86;50.65
78123;BME280;67376;44.802;10.332;2023-05-07T10:35:09;101032.28;;;21.85;50.57
78123;BME280;67376;44.802;10.332;2023-05-07T10:37:36;101031.22;;;21.86;50.97
78123;BME280;67376;44.802;10.332;2023-05-07T10:40:02;101027.44;;;21.87;51.06
78123;BME280;67376;44.802;10.332;2023-05-07T10:42:28;101025.78;;;21.86;50.72
78123;BME280;67376;44.802;10.332;2023-05-07T10:44:53;101019.28;;;21.87;50.97
78123;BME280;67376;44.802;10.332;2023-05-07T10:47:19;101021.19;;;21.87;50.88
78123;BME280;67376;44.802;10.332;2023-05-07T10:52:15;101011.97;;;21.88;50.97
78123;BME280;67376;44.802;10.332;2023-05-07T10:54:44;101015.50;;;21.88;50.91
78123;BME280;67376;44.802;10.332;2023-05-07T10:59:56;101003.56;;;21.89;50.79
78123;BME280;67376;44.802;10.332;2023-05-07T11:02:22;101008.75;;;21.91;50.92
78123;BME280;67376;44.802;10.332;2023-05-07T11:05:18;101011.72;;;21.89;51.23
78123;BME280;67376;44.802;10.332;2023-05-07T11:07:53;101007.13;;;21.90;50.94
78123;BME280;67376;44.802;10.332;2023-05-07T11:10:19;101011.47;;;21.91;51.19
78123;BME280;67376;44.802;10.332;2023-05-07T11:15:10;101015.38;;;21.95;51.07
78123;BME280;67376;44.802;10.332;2023-05-07T11:17:55;101016.53;;;21.99;50.88
78123;BME280;67376;44.802;10.332;2023-05-07T11:20:44;101011.66;;;22.01;50.72
78123;BME280;67376;44.802;10.332;2023-05-07T11:26:08;101012.03;;;22.04;50.97
78123;BME280;67376;44.802;10.332;2023-05-07T11:28:43;101002.81;;;22.05;51.10
78123;BME280;67376;44.802;10.332;2023-05-07T11:31:09;101004.47;;;22.06;50.98
78123;BME280;67376;44.802;10.332;2023-05-07T11:33:37;101005.31;;;22.07;51.05
78123;BME280;67376;44.802;10.332;2023-05-07T11:36:04;101014.88;;;22.10;51.51
78123;BME280;67376;44.802;10.332;2023-05-07T11:38:30;101005.66;;;22.11;51.50
78123;BME280;67376;44.802;10.332;2023-05-07T11:40:59;100997.97;;;22.07;51.25
78123;BME280;67376;44.802;10.332;2023-05-07T11:43:26;100996.44;;;22.12;51.16
78123;BME280;67376;44.802;10.332;2023-05-07T11:45:52;100997.50;;;22.11;51.17
78123;BME280;67376;44.802;10.332;2023-05-07T11:48:17;100993.94;;;22.10;51.52
78123;BME280;67376;44.802;10.332;2023-05-07T11:51:02;101002.22;;;22.15;51.56
78123;BME280;67376;44.802;10.332;2023-05-07T11:53:35;100999.25;;;22.17;51.45
78123;BME280;67376;44.802;10.332;2023-05-07T11:56:09;100994.16;;;22.20;51.54
78123;BME280;67376;44.802;10.332;2023-05-07T11:58:34;100996.63;;;22.22;51.67
78123;BME280;67376;44.802;10.332;2023-05-07T12:01:00;100985.50;;;22.23;51.72
78123;BME280;67376;44.802;10.332;2023-05-07T12:03:25;100996.63;;;22.22;51.50
78123;BME280;67376;44.802;10.332;2023-05-07T12:05:51;100990.94;;;22.23;51.81
78123;BME280;67376;44.802;10.332;2023-05-07T12:08:17;100991.78;;;22.24;52.32
78123;BME280;67376;44.802;10.332;2023-05-07T12:10:44;100992.59;;;22.24;52.21
78123;BME280;67376;44.802;10.332;2023-05-07T12:13:23;100983.72;;;22.29;52.31
78123;BME280;67376;44.802;10.332;2023-05-07T12:15:52;100989.16;;;22.29;52.15
78123;BME280;67376;44.802;10.332;2023-05-07T12:18:18;100987.03;;;22.31;52.14
78123;BME280;67376;44.802;10.332;2023-05-07T12:20:44;100979.84;;;22.25;52.21
78123;BME280;67376;44.802;10.332;2023-05-07T12:23:10;100984.78;;;22.28;52.55
78123;BME280;67376;44.802;10.332;2023-05-07T12:25:37;100994.84;;;22.27;52.38
78123;BME280;67376;44.802;10.332;2023-05-07T12:28:03;100982.88;;;22.28;52.78
78123;BME280;67376;44.802;10.332;2023-05-07T12:30:41;100981.59;;;22.31;53.05
78123;BME280;67376;44.802;10.332;2023-05-07T12:33:07;100984.31;;;22.31;52.56
78123;BME280;67376;44.802;10.332;2023-05-07T12:35:38;100977.69;;;22.27;52.85
78123;BME280;67376;44.802;10.332;2023-05-07T12:38:13;100985.38;;;22.30;52.39
78123;BME280;67376;44.802;10.332;2023-05-07T12:40:44;100984.53;;;22.29;52.77
78123;BME280;67376;44.802;10.332;2023-05-07T12:43:21;100984.31;;;22.31;52.49
78123;BME280;67376;44.802;10.332;2023-05-07T12:45:48;100982.66;;;22.30;52.70
78123;BME280;67376;44.802;10.332;2023-05-07T12:48:14;100981.81;;;22.29;52.61
78123;BME280;67376;44.802;10.332;2023-05-07T12:50:40;100984.06;;;22.32;52.83
78123;BME280;67376;44.802;10.332;2023-05-07T12:53:07;100985.72;;;22.33;52.60